createdAt,value
2022-12-26T00:02:23.108Z,7.04
2022-12-26T00:07:22.019Z,6.75
2022-12-26T00:12:20.706Z,6.69
2022-12-26T00:17:20.894Z,6.68
2022-12-26T00:22:19.870Z,6.60
2022-12-26T00:27:18.723Z,6.63
2022-12-26T00:32:18.381Z,6.69
2022-12-26T00:37:18.548Z,6.72
2022-12-26T00:42:17.400Z,6.57
2022-12-26T00:47:16.377Z,6.61
2022-12-26T00:52:15.205Z,6.66
2022-12-26T00:57:15.355Z,6.68
2022-12-26T01:02:28.076Z,6.71
2022-12-26T01:07:26.984Z,6.71
2022-12-26T01:12:27.576Z,6.72
2022-12-26T01:17:27.288Z,6.69
2022-12-26T01:22:26.800Z,6.71
2022-12-26T01:27:27.731Z,6.69
2022-12-26T01:32:28.231Z,6.68
2022-12-26T01:37:27.088Z,6.67
2022-12-26T01:42:28.246Z,6.56
2022-12-26T01:47:41.595Z,6.53
2022-12-26T01:52:46.437Z,6.50
2022-12-26T01:57:55.935Z,6.50
2022-12-26T02:03:13.161Z,6.45
2022-12-26T02:08:15.884Z,6.10
2022-12-26T02:13:18.335Z,6.00
2022-12-26T02:18:17.216Z,5.99
2022-12-26T02:24:02.927Z,6.03
2022-12-26T02:29:42.689Z,6.02
2022-12-26T02:34:52.215Z,5.99
2022-12-26T02:40:07.920Z,5.99
2022-12-26T02:45:32.058Z,5.93
2022-12-26T02:51:05.607Z,5.89
2022-12-26T02:56:29.363Z,5.83
2022-12-26T03:01:52.000Z,5.81
2022-12-26T03:07:15.898Z,5.78
2022-12-26T03:12:50.849Z,5.77
2022-12-26T03:17:53.407Z,5.68
2022-12-26T03:22:59.776Z,5.63
2022-12-26T03:27:58.704Z,5.55
2022-12-26T03:32:58.603Z,5.48
2022-12-26T03:38:04.173Z,5.45
2022-12-26T03:43:29.602Z,5.43
2022-12-26T03:48:51.300Z,5.39
2022-12-26T03:54:14.394Z,5.36
2022-12-26T03:59:34.026Z,5.34
2022-12-26T04:04:52.872Z,5.32
2022-12-26T04:10:15.878Z,5.30
2022-12-26T04:15:41.595Z,5.27
2022-12-26T04:20:49.920Z,5.25
2022-12-26T04:26:15.661Z,5.21
2022-12-26T04:31:39.905Z,5.14
2022-12-26T04:37:05.856Z,5.11
2022-12-26T04:42:25.232Z,5.06
2022-12-26T04:47:24.284Z,5.02
2022-12-26T04:52:23.071Z,4.89
2022-12-26T04:57:23.409Z,4.87
2022-12-26T05:02:39.558Z,4.84
2022-12-26T05:07:56.577Z,4.72
2022-12-26T05:12:57.099Z,4.74
2022-12-26T05:18:13.622Z,4.76
2022-12-26T05:23:37.259Z,4.72
2022-12-26T05:28:43.598Z,4.66
2022-12-26T05:33:59.914Z,4.72
2022-12-26T05:38:59.106Z,4.75
2022-12-26T05:43:59.588Z,4.75
2022-12-26T05:48:58.421Z,4.72
2022-12-26T05:53:57.393Z,4.72
2022-12-26T05:58:57.593Z,4.73
2022-12-26T06:04:00.290Z,4.72
2022-12-26T06:08:59.523Z,4.74
2022-12-26T06:13:58.917Z,4.75
2022-12-26T06:18:59.038Z,4.75
2022-12-26T06:23:57.824Z,4.77
2022-12-26T06:28:56.647Z,4.77
2022-12-26T06:34:01.462Z,4.80
2022-12-26T06:39:01.260Z,4.84
2022-12-26T06:44:00.177Z,4.82
2022-12-26T06:49:00.502Z,4.80
2022-12-26T06:54:11.975Z,4.87
2022-12-26T06:59:12.824Z,4.88
2022-12-26T07:04:14.469Z,4.90
2022-12-26T07:09:17.002Z,4.96
2022-12-26T07:14:18.450Z,5.00
2022-12-26T07:19:18.731Z,5.08
2022-12-26T07:24:21.094Z,5.12
2022-12-26T07:29:20.300Z,5.21
2022-12-26T07:34:20.684Z,5.31
2022-12-26T07:39:19.919Z,5.34
2022-12-26T07:44:20.252Z,5.42
2022-12-26T07:49:20.444Z,5.50
2022-12-26T07:54:22.005Z,5.63
2022-12-26T07:59:20.866Z,5.68
2022-12-26T08:04:21.634Z,5.72
2022-12-26T08:09:22.019Z,5.83
2022-12-26T08:14:23.741Z,5.83
2022-12-26T08:19:25.931Z,5.85
2022-12-26T08:24:28.117Z,5.94
2022-12-26T08:29:27.312Z,5.86
2022-12-26T08:34:33.798Z,5.82
2022-12-26T08:39:34.862Z,6.00
2022-12-26T08:44:36.619Z,6.18
2022-12-26T08:49:40.654Z,6.44
2022-12-26T08:54:39.749Z,6.68
2022-12-26T08:59:38.585Z,6.98
2022-12-26T09:04:38.869Z,7.44
2022-12-26T09:09:37.633Z,8.08
2022-12-26T09:14:36.936Z,8.86
2022-12-26T09:19:35.962Z,9.71
2022-12-26T09:24:37.529Z,10.56
2022-12-26T09:29:39.264Z,11.43
2022-12-26T09:34:38.599Z,12.20
2022-12-26T09:39:38.771Z,12.63
2022-12-26T09:44:49.345Z,12.90
2022-12-26T09:49:55.187Z,12.81
2022-12-26T09:54:59.996Z,13.59
2022-12-26T10:00:17.014Z,14.33
2022-12-26T10:05:22.185Z,14.77
2022-12-26T10:10:31.391Z,14.55
2022-12-26T10:15:45.489Z,15.03
2022-12-26T10:20:55.610Z,15.75
2022-12-26T10:26:02.402Z,16.00
2022-12-26T10:31:09.200Z,16.34
2022-12-26T10:36:17.816Z,16.44
2022-12-26T10:41:29.936Z,16.61
2022-12-26T10:46:47.402Z,16.54
2022-12-26T10:51:46.827Z,16.32
2022-12-26T10:56:51.001Z,16.46
2022-12-26T11:01:51.045Z,16.24
2022-12-26T11:06:54.984Z,16.42
2022-12-26T11:11:57.810Z,16.44
2022-12-26T11:16:58.831Z,16.96
2022-12-26T11:22:21.276Z,17.31
2022-12-26T11:27:28.095Z,17.39
2022-12-26T11:32:30.029Z,17.37
2022-12-26T11:37:32.700Z,17.30
2022-12-26T11:42:32.840Z,18.26
2022-12-26T11:47:32.221Z,18.37
2022-12-26T11:52:38.708Z,18.84
2022-12-26T11:57:39.354Z,19.19
2022-12-26T12:02:42.610Z,19.20
2022-12-26T12:07:52.378Z,19.29
2022-12-26T12:12:58.695Z,19.38
2022-12-26T12:18:09.190Z,19.40
2022-12-26T12:23:25.845Z,19.75
2022-12-26T12:28:49.804Z,19.82
2022-12-26T12:34:02.940Z,20.20
2022-12-26T12:39:07.993Z,20.22
2022-12-26T12:44:15.009Z,20.22
2022-12-26T12:49:27.048Z,20.10
2022-12-26T12:55:03.243Z,20.14
2022-12-26T13:00:14.395Z,19.86
2022-12-26T13:05:35.866Z,20.24
2022-12-26T13:10:39.039Z,20.20
2022-12-26T13:15:44.906Z,20.24
2022-12-26T13:20:47.939Z,20.32
2022-12-26T13:25:53.508Z,20.50
2022-12-26T13:30:56.928Z,20.61
2022-12-26T13:36:01.843Z,20.33
2022-12-26T13:41:25.009Z,20.05
2022-12-26T13:46:56.566Z,19.98
2022-12-26T13:52:00.215Z,19.63
2022-12-26T13:57:29.488Z,19.04
2022-12-26T14:03:20.505Z,18.87
2022-12-26T14:08:33.337Z,18.90
2022-12-26T14:13:52.576Z,18.52
2022-12-26T14:18:58.845Z,18.27
2022-12-26T14:24:11.830Z,18.32
2022-12-26T14:29:20.974Z,18.02
2022-12-26T14:34:31.612Z,17.70
2022-12-26T14:39:41.181Z,17.48
2022-12-26T14:44:44.491Z,17.18
2022-12-26T14:49:44.359Z,16.90
2022-12-26T14:54:51.142Z,16.57
2022-12-26T15:00:15.866Z,16.15
2022-12-26T15:05:22.818Z,15.78
2022-12-26T15:10:59.163Z,15.39
2022-12-26T15:16:28.918Z,15.01
2022-12-26T15:21:57.373Z,14.70
2022-12-26T15:27:21.450Z,14.47
2022-12-26T15:32:30.660Z,14.21
2022-12-26T15:37:52.331Z,13.92
2022-12-26T15:43:12.713Z,13.67
2022-12-26T15:48:26.535Z,13.48
2022-12-26T15:53:38.649Z,13.28
2022-12-26T15:59:05.714Z,13.11
2022-12-26T16:04:20.295Z,12.91
2022-12-26T16:09:37.322Z,12.76
2022-12-26T16:14:39.292Z,12.62
2022-12-26T16:19:41.027Z,12.34
2022-12-26T16:24:43.252Z,12.15
2022-12-26T16:29:52.971Z,11.90
2022-12-26T16:34:54.283Z,11.68
2022-12-26T16:40:25.493Z,11.38
2022-12-26T16:45:25.536Z,11.16
2022-12-26T16:50:28.707Z,10.94
2022-12-26T16:55:37.878Z,10.79
2022-12-26T17:00:37.470Z,10.56
2022-12-26T17:05:39.231Z,10.44
2022-12-26T17:10:52.400Z,10.26
2022-12-26T17:16:07.427Z,10.14
2022-12-26T17:21:30.065Z,10.07
2022-12-26T17:26:31.840Z,9.99
2022-12-26T17:31:35.999Z,9.91
2022-12-26T17:41:57.865Z,9.62
2022-12-26T17:46:56.717Z,9.55
2022-12-26T17:52:01.586Z,9.40
2022-12-26T17:57:02.078Z,9.08
2022-12-26T18:02:01.031Z,8.93
2022-12-26T18:06:59.888Z,8.93
2022-12-26T18:11:58.728Z,8.89
2022-12-26T18:17:00.395Z,8.88
2022-12-26T18:21:59.105Z,8.87
2022-12-26T18:26:58.571Z,8.82
2022-12-26T18:31:58.906Z,8.78
2022-12-26T18:36:57.693Z,8.73
2022-12-26T18:41:56.457Z,8.70
2022-12-26T18:46:55.231Z,8.63
2022-12-26T18:51:55.420Z,8.49
2022-12-26T18:56:54.148Z,8.43
2022-12-26T19:01:53.012Z,8.36
2022-12-26T19:06:53.459Z,8.19
2022-12-26T19:11:53.595Z,7.98
2022-12-26T19:16:52.400Z,7.81
2022-12-26T19:21:51.306Z,7.75
2022-12-26T19:26:50.087Z,7.60
2022-12-26T19:31:50.256Z,7.56
2022-12-26T19:36:49.009Z,7.47
2022-12-26T19:41:47.829Z,7.25
2022-12-26T19:46:47.043Z,7.25
2022-12-26T19:51:47.645Z,7.22
2022-12-26T19:56:46.505Z,7.21
2022-12-26T20:01:45.483Z,7.17
2022-12-26T20:06:44.415Z,7.12
2022-12-26T20:11:49.441Z,7.09
2022-12-26T20:17:08.810Z,7.09
2022-12-26T20:22:09.513Z,7.14
2022-12-26T20:27:10.304Z,7.21
2022-12-26T20:32:12.955Z,7.26
2022-12-26T20:37:14.008Z,7.25
2022-12-26T20:42:17.849Z,7.30
2022-12-26T20:47:18.738Z,7.32
2022-12-26T20:52:19.497Z,7.36
2022-12-26T20:57:21.015Z,7.41
2022-12-26T21:02:20.684Z,7.44
2022-12-26T21:07:21.437Z,7.42
2022-12-26T21:12:22.854Z,7.40
2022-12-26T21:17:21.977Z,7.35
2022-12-26T21:22:24.782Z,7.30
2022-12-26T21:27:30.435Z,7.24
2022-12-26T21:32:31.035Z,7.15
2022-12-26T21:37:51.625Z,7.16
2022-12-26T21:42:53.118Z,7.15
2022-12-26T21:47:52.928Z,7.13
2022-12-26T21:52:53.442Z,7.11
2022-12-26T21:57:54.597Z,7.05
2022-12-26T22:03:10.662Z,7.05
2022-12-26T22:08:12.419Z,7.02
2022-12-26T22:13:13.514Z,7.00
2022-12-26T22:18:13.484Z,6.99
2022-12-26T22:23:13.762Z,6.99
2022-12-26T22:28:20.176Z,7.01
2022-12-26T22:33:21.950Z,7.00
2022-12-26T22:38:22.340Z,6.95
2022-12-26T22:43:22.577Z,6.77
2022-12-26T22:48:22.381Z,6.70
2022-12-26T22:53:24.526Z,6.62
2022-12-26T22:58:27.862Z,6.54
2022-12-26T23:03:28.195Z,6.45
2022-12-26T23:08:29.992Z,6.35
2022-12-26T23:13:32.653Z,6.33
2022-12-26T23:18:59.049Z,6.22
2022-12-26T23:23:58.174Z,6.15
2022-12-26T23:29:15.549Z,6.09
2022-12-26T23:34:14.498Z,6.01
2022-12-26T23:39:13.632Z,5.97
2022-12-26T23:44:13.942Z,5.91
2022-12-26T23:49:14.203Z,5.91
2022-12-26T23:54:13.074Z,5.83
2022-12-26T23:59:13.244Z,5.82
